Time;durP1;ratioP1;P1;durP2;ratioP2;P2;SDS_P1;SDS_P2;PMS_P1;PMS_P2;Temp;Humidity;BMP_temperature;BMP_pressure;BME280_temperature;BME280_humidity;BME280_pressure;Samples;Min_cycle;Max_cycle;Signal;HPM_P1;HPM_P2
2021/07/30 00:01:59;;;;;;;2.63;2.40;;;19.80;96.10;;;;;;4805072;29;20223;-72
2021/07/30 00:04:25;;;;;;;2.43;2.23;;;19.80;96.10;;;;;;4820866;29;20223;-71
2021/07/30 00:06:51;;;;;;;6.20;3.33;;;19.70;96.20;;;;;;4822453;29;20241;-72
2021/07/30 00:09:17;;;;;;;2.90;2.50;;;19.70;96.10;;;;;;4820702;29;20223;-72
2021/07/30 00:11:42;;;;;;;3.53;2.60;;;19.70;96.10;;;;;;4804684;29;20223;-71
2021/07/30 00:14:08;;;;;;;3.67;2.70;;;19.70;96.20;;;;;;4819318;29;21008;-71
2021/07/30 00:16:34;;;;;;;3.23;2.80;;;19.70;96.20;;;;;;4833755;29;20222;-72
2021/07/30 00:19:01;;;;;;;4.57;2.57;;;19.60;96.20;;;;;;4804099;29;20591;-71
2021/07/30 00:21:26;;;;;;;2.33;2.13;;;19.60;96.20;;;;;;4834620;29;20280;-71
2021/07/30 00:23:52;;;;;;;3.90;2.80;;;19.60;96.20;;;;;;4819918;29;20494;-71
2021/07/30 00:26:18;;;;;;;2.33;2.13;;;19.60;96.30;;;;;;4820227;29;20738;-71
2021/07/30 00:28:44;;;;;;;3.70;2.77;;;19.50;96.30;;;;;;4805634;29;20303;-71
2021/07/30 00:31:09;;;;;;;2.53;2.33;;;19.50;96.40;;;;;;4830397;29;20230;-72
2021/07/30 00:33:35;;;;;;;3.27;2.50;;;19.40;96.40;;;;;;4807300;29;20231;-72
2021/07/30 00:36:01;;;;;;;3.33;3.03;;;19.40;96.50;;;;;;4799171;29;20215;-71
2021/07/30 00:38:27;;;;;;;2.80;2.57;;;19.40;96.50;;;;;;4815626;29;20693;-71
2021/07/30 00:40:53;;;;;;;5.97;3.40;;;19.40;96.50;;;;;;4818780;29;20275;-71
2021/07/30 00:43:19;;;;;;;3.60;3.30;;;19.40;96.50;;;;;;4822427;29;20225;-71
2021/07/30 00:45:45;;;;;;;4.87;3.13;;;19.30;96.50;;;;;;4820965;29;20222;-71
2021/07/30 00:48:13;;;;;;;4.43;3.07;;;19.30;96.50;;;;;;4806679;29;20493;-71
2021/07/30 00:50:41;;;;;;;2.77;2.57;;;19.30;96.50;;;;;;4806294;29;20464;-71
2021/07/30 00:53:07;;;;;;;3.50;2.63;;;19.30;96.80;;;;;;4836338;29;20465;-71
2021/07/30 00:55:33;;;;;;;2.23;2.13;;;19.30;96.60;;;;;;4820021;29;20837;-71
2021/07/30 00:57:59;;;;;;;2.60;2.30;;;19.30;96.60;;;;;;4820518;29;20226;-71
2021/07/30 01:00:25;;;;;;;3.80;2.73;;;19.20;96.50;;;;;;4805348;29;20976;-72
2021/07/30 01:02:51;;;;;;;3.87;2.50;;;19.20;96.60;;;;;;4833279;29;20227;-71
2021/07/30 01:05:17;;;;;;;9.37;2.10;;;19.20;96.60;;;;;;4817962;29;20556;-71
2021/07/30 01:07:42;;;;;;;4.30;3.10;;;19.20;96.60;;;;;;4806410;29;20609;-71
2021/07/30 01:10:09;;;;;;;4.63;3.50;;;19.20;96.60;;;;;;4821788;29;20216;-71
2021/07/30 01:12:34;;;;;;;2.80;2.40;;;19.10;96.60;;;;;;4819771;29;20291;-71
2021/07/30 01:15:00;;;;;;;2.50;2.30;;;19.10;96.60;;;;;;4832057;29;20593;-71
2021/07/30 01:17:26;;;;;;;6.03;2.90;;;19.10;96.70;;;;;;4815594;29;20224;-72
2021/07/30 01:19:52;;;;;;;11.17;2.40;;;19.00;96.70;;;;;;4818814;29;20561;-72
2021/07/30 01:22:32;;;;;;;2.57;2.10;;;19.00;96.70;;;;;;4820215;29;20227;-71
2021/07/30 01:24:57;;;;;;;2.60;2.40;;;19.00;96.70;;;;;;4810039;29;20455;-72
2021/07/30 01:27:23;;;;;;;3.00;2.70;;;19.00;96.70;;;;;;4825278;29;20460;-72
2021/07/30 01:29:49;;;;;;;3.90;2.43;;;19.00;96.80;;;;;;4816881;29;20232;-71
2021/07/30 01:32:16;;;;;;;2.07;1.93;;;19.00;96.80;;;;;;4805882;29;20232;-71
2021/07/30 01:34:44;;;;;;;2.77;2.50;;;18.90;96.90;;;;;;4819609;29;20537;-71
2021/07/30 01:37:10;;;;;;;2.37;2.10;;;18.70;97.00;;;;;;4807588;29;20465;-72
2021/07/30 01:39:36;;;;;;;4.13;2.67;;;18.70;96.90;;;;;;4840251;29;20475;-71
2021/07/30 01:42:03;;;;;;;2.30;2.20;;;18.80;97.00;;;;;;4836434;29;20546;-71
2021/07/30 01:44:28;;;;;;;2.33;2.13;;;18.80;97.10;;;;;;4809241;29;20303;-72
2021/07/30 01:46:54;;;;;;;2.00;1.70;;;18.70;97.40;;;;;;4818383;29;20933;-70
2021/07/30 01:49:20;;;;;;;2.53;2.30;;;18.70;97.00;;;;;;4824893;29;20229;-71
2021/07/30 01:51:46;;;;;;;2.57;2.23;;;18.70;97.00;;;;;;4808944;29;20656;-72
2021/07/30 01:54:14;;;;;;;3.13;2.70;;;18.70;97.10;;;;;;4824526;29;20238;-70
2021/07/30 01:56:42;;;;;;;4.07;2.10;;;18.60;97.00;;;;;;4835832;29;20540;-71
2021/07/30 01:59:09;;;;;;;2.93;2.47;;;18.60;97.00;;;;;;4819503;29;20834;-71
2021/07/30 02:01:34;;;;;;;3.53;2.30;;;18.60;97.00;;;;;;4837302;29;20464;-71
2021/07/30 02:04:00;;;;;;;2.60;2.30;;;18.60;97.00;;;;;;4804850;29;20555;-71
2021/07/30 02:06:26;;;;;;;2.40;2.20;;;18.60;97.10;;;;;;4824871;29;20647;-71
2021/07/30 02:08:51;;;;;;;2.57;2.37;;;18.60;97.10;;;;;;4820960;29;20220;-71
2021/07/30 02:11:17;;;;;;;3.87;2.47;;;18.50;97.10;;;;;;4824603;29;20223;-71
2021/07/30 02:16:27;;;;;;;5.70;2.67;;;18.50;97.20;;;;;;4823842;29;20226;-71
2021/07/30 02:18:52;;;;;;;2.20;2.03;;;18.40;97.20;;;;;;4806582;29;20456;-71
2021/07/30 02:21:18;;;;;;;3.10;2.80;;;18.40;97.10;;;;;;4824324;29;20231;-71
2021/07/30 02:23:45;;;;;;;4.10;2.20;;;18.40;97.20;;;;;;4806571;29;20234;-71
2021/07/30 02:26:11;;;;;;;2.60;2.40;;;18.30;97.20;;;;;;4822483;29;20999;-72
2021/07/30 02:28:36;;;;;;;3.83;3.10;;;18.30;97.20;;;;;;4830491;29;20454;-72
2021/07/30 02:31:02;;;;;;;2.83;2.63;;;18.30;97.20;;;;;;4822937;29;20235;-72
2021/07/30 02:33:28;;;;;;;5.13;2.53;;;18.20;97.60;;;;;;4822724;29;20777;-71
2021/07/30 02:35:53;;;;;;;3.50;2.40;;;18.10;97.40;;;;;;4823192;29;20723;-70
2021/07/30 02:38:19;;;;;;;2.90;2.60;;;18.10;97.50;;;;;;4821991;29;20239;-71
2021/07/30 02:40:45;;;;;;;2.47;2.27;;;18.10;97.40;;;;;;4807338;29;20355;-71
2021/07/30 02:43:10;;;;;;;5.60;2.80;;;18.20;97.40;;;;;;4806328;29;20699;-71
2021/07/30 02:45:36;;;;;;;5.50;3.00;;;18.20;97.40;;;;;;4823987;29;20231;-71
2021/07/30 02:48:02;;;;;;;2.97;2.67;;;18.10;97.60;;;;;;4831035;29;20230;-71
2021/07/30 02:50:28;;;;;;;2.30;2.10;;;18.10;97.60;;;;;;4821001;29;20230;-71
2021/07/30 02:52:53;;;;;;;5.23;3.20;;;18.00;97.70;;;;;;4816798;29;20227;-71
2021/07/30 02:55:19;;;;;;;2.90;2.63;;;18.10;97.70;;;;;;4816785;29;20224;-71
2021/07/30 02:57:45;;;;;;;2.57;2.43;;;18.00;97.60;;;;;;4821280;29;20281;-71
2021/07/30 03:00:11;;;;;;;4.00;2.60;;;18.10;97.60;;;;;;4815997;29;20276;-71
2021/07/30 03:02:37;;;;;;;3.07;2.77;;;18.00;97.60;;;;;;4805078;29;20235;-71
2021/07/30 03:05:03;;;;;;;3.23;2.77;;;18.00;97.60;;;;;;4821276;29;20459;-71
2021/07/30 03:07:29;;;;;;;2.90;2.43;;;18.00;97.70;;;;;;4833352;29;20553;-71
2021/07/30 03:09:54;;;;;;;3.10;2.80;;;18.00;97.70;;;;;;4819950;29;20551;-72
2021/07/30 03:12:20;;;;;;;2.50;2.30;;;18.00;97.60;;;;;;4799210;29;20231;-71
2021/07/30 03:14:45;;;;;;;2.60;2.40;;;18.00;97.70;;;;;;4836483;29;20223;-72
2021/07/30 03:17:11;;;;;;;3.10;2.90;;;17.90;97.60;;;;;;4835416;29;20230;-71
2021/07/30 03:19:37;;;;;;;3.10;2.40;;;17.90;97.60;;;;;;4814778;29;20704;-71
2021/07/30 03:22:03;;;;;;;2.63;2.33;;;17.90;97.70;;;;;;4807724;29;20232;-71
2021/07/30 03:24:29;;;;;;;2.77;2.57;;;17.90;97.70;;;;;;4823701;29;20703;-72
2021/07/30 03:26:54;;;;;;;3.03;2.73;;;17.90;97.70;;;;;;4817441;29;20525;-71
2021/07/30 03:29:23;;;;;;;4.13;3.07;;;17.90;97.80;;;;;;4806265;29;20232;-71
2021/07/30 03:31:49;;;;;;;2.90;2.67;;;17.90;97.80;;;;;;4804415;29;20681;-70
2021/07/30 03:34:16;;;;;;;3.30;3.00;;;17.80;97.70;;;;;;4808316;29;20512;-71
2021/07/30 03:36:42;;;;;;;2.83;2.47;;;17.80;97.70;;;;;;4820032;29;20495;-72
2021/07/30 03:39:08;;;;;;;3.13;2.83;;;17.80;97.70;;;;;;4824737;29;20460;-71
2021/07/30 03:41:35;;;;;;;4.93;3.13;;;17.80;98.00;;;;;;4834142;29;20472;-71
2021/07/30 03:44:01;;;;;;;4.23;2.63;;;17.70;97.90;;;;;;4807429;29;21013;-71
2021/07/30 03:46:26;;;;;;;2.50;2.30;;;17.70;98.30;;;;;;4807325;29;20500;-71
2021/07/30 03:48:52;;;;;;;3.03;2.57;;;17.70;97.90;;;;;;4805255;29;20317;-71
2021/07/30 03:51:17;;;;;;;3.37;2.20;;;17.70;97.90;;;;;;4820805;29;20298;-71
2021/07/30 03:53:43;;;;;;;3.90;2.37;;;17.70;97.90;;;;;;4804833;29;20232;-71
2021/07/30 03:56:16;;;;;;;2.93;2.73;;;17.70;97.90;;;;;;4806173;29;20226;-71
2021/07/30 03:58:44;;;;;;;2.80;2.30;;;17.60;98.20;;;;;;4833880;29;20224;-72
2021/07/30 04:01:11;;;;;;;3.73;2.83;;;17.60;98.00;;;;;;4822519;29;20472;-71
2021/07/30 04:03:37;;;;;;;3.60;2.40;;;17.60;98.30;;;;;;4831221;29;20476;-72
2021/07/30 04:06:04;;;;;;;3.13;2.93;;;17.60;98.00;;;;;;4834289;29;20466;-71
2021/07/30 04:08:32;;;;;;;6.93;2.97;;;17.50;98.00;;;;;;4820871;29;20537;-71
2021/07/30 04:10:59;;;;;;;5.10;2.47;;;17.50;98.00;;;;;;4803690;29;20472;-72
2021/07/30 04:13:24;;;;;;;3.40;3.10;;;17.50;98.10;;;;;;4821215;29;20864;-71
2021/07/30 04:15:50;;;;;;;5.33;3.47;;;17.50;98.10;;;;;;4803626;29;20462;-72
2021/07/30 04:18:16;;;;;;;2.60;2.40;;;17.40;98.10;;;;;;4816690;29;20286;-71
2021/07/30 04:20:42;;;;;;;3.17;2.90;;;17.40;98.00;;;;;;4818293;29;20227;-70
2021/07/30 04:23:07;;;;;;;6.37;2.77;;;17.50;98.10;;;;;;4820982;29;20293;-72
2021/07/30 04:25:33;;;;;;;3.57;3.27;;;17.40;98.10;;;;;;4830403;29;20697;-71
2021/07/30 04:27:59;;;;;;;4.30;3.40;;;17.40;98.00;;;;;;4809486;29;20234;-70
2021/07/30 04:30:25;;;;;;;3.57;3.13;;;17.40;98.10;;;;;;4820102;29;20224;-71
2021/07/30 04:32:51;;;;;;;2.93;2.73;;;17.40;98.20;;;;;;4811523;29;20352;-70
2021/07/30 04:35:17;;;;;;;2.93;2.63;;;17.30;98.40;;;;;;4807340;29;20227;-71
2021/07/30 04:37:42;;;;;;;2.77;2.57;;;17.30;98.40;;;;;;4813199;29;20527;-72
2021/07/30 04:40:09;;;;;;;4.00;2.93;;;17.30;98.40;;;;;;4824404;29;20680;-71
2021/07/30 04:42:34;;;;;;;2.93;2.70;;;17.30;98.40;;;;;;4803029;29;20240;-71
2021/07/30 04:45:00;;;;;;;6.87;3.00;;;17.30;98.40;;;;;;4822369;29;20548;-71
2021/07/30 04:47:25;;;;;;;4.30;3.43;;;17.30;98.50;;;;;;4805871;29;20255;-71
2021/07/30 04:49:51;;;;;;;3.50;2.80;;;17.30;98.50;;;;;;4810348;29;20237;-72
2021/07/30 04:52:17;;;;;;;2.90;2.70;;;17.30;98.40;;;;;;4834101;29;20704;-70
2021/07/30 04:54:43;;;;;;;3.10;2.60;;;17.30;98.60;;;;;;4825227;29;20220;-71
2021/07/30 04:57:09;;;;;;;2.97;2.77;;;17.30;98.60;;;;;;4821414;29;20306;-71
2021/07/30 04:59:35;;;;;;;3.30;2.60;;;17.30;98.50;;;;;;4836838;29;20231;-71
2021/07/30 05:02:01;;;;;;;3.40;3.10;;;17.30;98.60;;;;;;4808005;29;20539;-71
2021/07/30 05:04:28;;;;;;;4.50;2.90;;;17.30;98.70;;;;;;4837443;29;20987;-71
2021/07/30 05:06:54;;;;;;;2.93;2.73;;;17.30;98.80;;;;;;4825297;29;20610;-72
2021/07/30 05:09:19;;;;;;;2.80;2.60;;;17.30;98.60;;;;;;4842995;29;20474;-72
2021/07/30 05:11:45;;;;;;;2.90;2.60;;;17.30;98.80;;;;;;4810160;29;20480;-72
2021/07/30 05:14:11;;;;;;;3.43;3.13;;;17.30;99.00;;;;;;4810597;29;20680;-71
2021/07/30 05:16:37;;;;;;;2.40;2.20;;;17.30;99.00;;;;;;4826249;29;20640;-72
2021/07/30 05:19:02;;;;;;;4.10;3.17;;;17.30;99.10;;;;;;4826165;29;20227;-71
2021/07/30 05:21:28;;;;;;;4.07;2.90;;;17.40;99.10;;;;;;4826222;29;20516;-71
2021/07/30 05:23:54;;;;;;;3.17;2.87;;;17.40;99.20;;;;;;4809562;29;20219;-71
2021/07/30 05:26:19;;;;;;;3.20;2.90;;;17.40;99.20;;;;;;4810593;29;20224;-70
2021/07/30 05:28:45;;;;;;;3.47;3.17;;;17.40;99.30;;;;;;4825736;29;20242;-72
2021/07/30 05:31:16;;;;;;;3.37;3.07;;;17.40;99.60;;;;;;4810808;29;20227;-71
2021/07/30 05:33:43;;;;;;;9.80;3.10;;;17.50;99.60;;;;;;4810208;29;20245;-71
2021/07/30 05:36:14;;;;;;;3.20;2.43;;;17.50;99.70;;;;;;4826196;29;20468;-71
2021/07/30 05:38:39;;;;;;;5.00;3.00;;;17.50;99.90;;;;;;4818437;29;20467;-71
2021/07/30 05:41:05;;;;;;;3.33;2.70;;;17.60;99.90;;;;;;4825274;29;20468;-71
2021/07/30 05:43:32;;;;;;;5.03;2.90;;;17.60;99.90;;;;;;4811241;29;20230;-71
2021/07/30 05:46:00;;;;;;;6.90;2.77;;;17.70;99.90;;;;;;4810437;29;20735;-72
2021/07/30 05:48:25;;;;;;;4.10;3.00;;;17.70;99.90;;;;;;4806723;29;20476;-70
2021/07/30 05:50:51;;;;;;;2.40;2.20;;;17.70;99.90;;;;;;4820539;29;20843;-71
2021/07/30 05:53:17;;;;;;;4.63;2.60;;;17.70;99.90;;;;;;4807863;29;20231;-71
2021/07/30 05:55:42;;;;;;;3.50;2.87;;;17.80;99.90;;;;;;4809129;29;20216;-71
2021/07/30 05:58:08;;;;;;;3.00;2.70;;;17.80;99.90;;;;;;4810687;29;20242;-71
2021/07/30 06:00:34;;;;;;;3.20;3.00;;;17.90;99.90;;;;;;4842244;29;20227;-71
2021/07/30 06:02:59;;;;;;;3.27;2.97;;;17.90;99.90;;;;;;4810200;29;20583;-71
2021/07/30 06:05:25;;;;;;;3.10;2.73;;;17.90;99.90;;;;;;4810332;29;20443;-71
2021/07/30 06:07:50;;;;;;;2.60;2.33;;;18.00;99.90;;;;;;4841639;29;20266;-70
2021/07/30 06:10:16;;;;;;;4.73;2.90;;;18.00;99.90;;;;;;4840252;29;20264;-71
2021/07/30 06:12:42;;;;;;;3.60;3.10;;;18.10;99.90;;;;;;4825042;29;20227;-71
2021/07/30 06:15:08;;;;;;;3.20;2.87;;;18.10;99.90;;;;;;4810938;29;20219;-71
2021/07/30 06:17:35;;;;;;;2.80;2.50;;;18.20;99.90;;;;;;4810433;29;20314;-71
2021/07/30 06:20:00;;;;;;;3.10;2.80;;;18.20;99.90;;;;;;4825119;29;20463;-70
2021/07/30 06:22:27;;;;;;;5.07;3.10;;;18.30;99.90;;;;;;4825427;29;20464;-71
2021/07/30 06:24:52;;;;;;;4.00;3.00;;;18.30;99.90;;;;;;4807890;29;20280;-70
2021/07/30 06:27:19;;;;;;;3.37;3.03;;;18.30;99.90;;;;;;4825250;29;20456;-70
2021/07/30 06:29:45;;;;;;;4.50;3.00;;;18.40;99.90;;;;;;4824681;29;20267;-71
2021/07/30 06:32:11;;;;;;;3.50;3.20;;;18.40;99.90;;;;;;4809832;29;20635;-71
2021/07/30 06:34:36;;;;;;;2.93;2.73;;;18.50;99.90;;;;;;4802867;29;20224;-70
2021/07/30 06:37:02;;;;;;;3.13;2.70;;;18.50;99.90;;;;;;4809670;29;20267;-70
2021/07/30 06:39:28;;;;;;;3.07;2.87;;;18.50;99.90;;;;;;4810114;29;20235;-70
2021/07/30 06:41:53;;;;;;;2.57;2.37;;;18.60;99.90;;;;;;4822972;29;20219;-71
2021/07/30 06:44:19;;;;;;;3.70;2.73;;;18.70;99.90;;;;;;4824034;29;20759;-70
2021/07/30 06:46:44;;;;;;;2.97;2.57;;;18.80;99.90;;;;;;4824170;29;20238;-71
2021/07/30 06:49:10;;;;;;;2.80;2.60;;;18.80;99.90;;;;;;4809561;29;20221;-70
2021/07/30 06:51:36;;;;;;;4.17;3.77;;;18.90;99.90;;;;;;4807921;29;20242;-70
2021/07/30 06:54:02;;;;;;;4.23;3.30;;;19.00;99.90;;;;;;4832806;29;20207;-70
2021/07/30 06:56:31;;;;;;;2.83;2.63;;;19.00;99.90;;;;;;4824849;29;20227;-70
2021/07/30 06:58:56;;;;;;;2.70;2.50;;;19.10;99.90;;;;;;4824014;29;20471;-71
2021/07/30 07:01:22;;;;;;;3.23;2.93;;;19.20;99.90;;;;;;4839934;29;20468;-71
2021/07/30 07:03:47;;;;;;;3.10;2.80;;;19.30;99.90;;;;;;4808145;29;20216;-71
2021/07/30 07:06:17;;;;;;;2.60;2.40;;;19.40;99.90;;;;;;4813878;29;20219;-71
2021/07/30 07:08:44;;;;;;;5.43;2.83;;;19.40;99.90;;;;;;4808161;29;20230;-71
2021/07/30 07:11:09;;;;;;;3.13;2.83;;;19.50;99.90;;;;;;4807173;29;20461;-71
2021/07/30 07:13:37;;;;;;;3.27;3.07;;;19.60;99.90;;;;;;4805415;29;20481;-70
2021/07/30 07:16:03;;;;;;;5.13;3.03;;;19.70;99.90;;;;;;4823653;29;20306;-70
2021/07/30 07:18:32;;;;;;;3.70;3.40;;;19.80;99.90;;;;;;4820249;29;20842;-70
2021/07/30 07:20:57;;;;;;;2.90;2.67;;;19.80;99.90;;;;;;4807240;29;20552;-70
2021/07/30 07:23:23;;;;;;;2.90;2.60;;;19.80;99.90;;;;;;4807730;29;20593;-71
2021/07/30 07:25:49;;;;;;;3.57;3.07;;;19.90;99.90;;;;;;4807414;29;20250;-71
2021/07/30 07:28:15;;;;;;;3.70;3.40;;;19.90;99.90;;;;;;4806527;29;20493;-70
2021/07/30 07:30:41;;;;;;;3.50;2.90;;;19.90;99.90;;;;;;4808245;29;21025;-71
2021/07/30 07:33:07;;;;;;;3.20;3.00;;;20.00;99.90;;;;;;4840447;29;20231;-71
2021/07/30 07:35:32;;;;;;;3.33;2.77;;;20.10;99.90;;;;;;4823475;29;20466;-71
2021/07/30 07:38:02;;;;;;;4.33;2.97;;;20.20;99.90;;;;;;4839877;29;20230;-70
2021/07/30 07:40:28;;;;;;;3.43;2.67;;;20.20;99.90;;;;;;4805209;29;20227;-69
2021/07/30 07:42:56;;;;;;;4.40;2.60;;;20.20;99.90;;;;;;4800598;29;20532;-70
2021/07/30 07:45:22;;;;;;;4.10;3.03;;;20.20;99.90;;;;;;4823855;29;20969;-70
2021/07/30 07:47:47;;;;;;;3.30;2.83;;;20.30;99.90;;;;;;4823888;29;20475;-71
2021/07/30 07:50:13;;;;;;;3.53;2.90;;;20.40;99.90;;;;;;4842285;29;20219;-70
2021/07/30 07:52:38;;;;;;;3.30;3.00;;;20.50;99.90;;;;;;4823683;29;20712;-72
2021/07/30 07:55:05;;;;;;;3.17;2.67;;;20.50;99.90;;;;;;4823430;29;20220;-70
2021/07/30 07:57:30;;;;;;;2.60;2.40;;;20.60;99.90;;;;;;4807865;29;20231;-71
2021/07/30 07:59:56;;;;;;;5.43;2.83;;;20.70;99.90;;;;;;4824847;29;20551;-71
2021/07/30 08:02:22;;;;;;;3.27;2.50;;;20.70;99.90;;;;;;4822995;29;20235;-71
2021/07/30 08:04:47;;;;;;;2.63;2.43;;;20.80;99.90;;;;;;4807801;29;20231;-71
2021/07/30 08:07:17;;;;;;;4.80;2.93;;;20.80;99.90;;;;;;4831688;29;20240;-70
2021/07/30 08:09:43;;;;;;;6.90;3.37;;;20.90;99.90;;;;;;4836096;29;20219;-70
2021/07/30 08:12:09;;;;;;;4.37;3.10;;;20.90;99.90;;;;;;4822585;29;20477;-71
2021/07/30 08:14:35;;;;;;;4.63;2.90;;;21.00;99.90;;;;;;4823220;29;20471;-70
2021/07/30 08:17:00;;;;;;;3.33;3.00;;;21.10;99.90;;;;;;4839900;29;20219;-70
2021/07/30 08:19:26;;;;;;;3.97;3.33;;;21.10;99.90;;;;;;4805176;29;20288;-71
2021/07/30 08:21:51;;;;;;;3.20;2.90;;;21.20;99.90;;;;;;4821690;29;20249;-69
2021/07/30 08:24:17;;;;;;;2.90;2.70;;;21.30;99.90;;;;;;4814932;29;20219;-71
2021/07/30 08:26:43;;;;;;;3.60;3.00;;;21.40;99.90;;;;;;4839466;29;20222;-71
2021/07/30 08:29:08;;;;;;;5.23;2.60;;;21.50;99.90;;;;;;4823136;29;20219;-69
2021/07/30 08:31:34;;;;;;;3.97;3.30;;;21.60;99.90;;;;;;4819971;29;20629;-71
2021/07/30 08:34:00;;;;;;;3.23;2.93;;;21.60;99.90;;;;;;4803360;29;20242;-70
2021/07/30 08:36:25;;;;;;;3.40;3.00;;;21.80;99.90;;;;;;4807612;29;20219;-70
2021/07/30 08:38:51;;;;;;;3.30;3.00;;;21.90;99.90;;;;;;4806789;29;20219;-73
2021/07/30 08:41:21;;;;;;;2.77;2.57;;;22.20;99.90;;;;;;4839654;29;20219;-73
2021/07/30 08:43:54;;;;;;;3.97;2.70;;;22.20;99.90;;;;;;4821671;29;20242;-73
2021/07/30 08:46:27;;;;;;;2.77;2.33;;;22.40;99.90;;;;;;4806985;29;20484;-73
2021/07/30 08:48:54;;;;;;;3.93;2.80;;;22.70;99.90;;;;;;4807665;29;20456;-74
2021/07/30 08:51:21;;;;;;;4.13;2.70;;;22.80;99.90;;;;;;4823255;29;20468;-73
2021/07/30 08:53:47;;;;;;;3.87;2.90;;;22.90;99.60;;;;;;4819380;29;20839;-73
2021/07/30 08:56:15;;;;;;;4.17;3.10;;;23.10;99.30;;;;;;4808879;29;20448;-74
2021/07/30 08:58:41;;;;;;;3.50;3.20;;;23.10;99.00;;;;;;4822768;29;21086;-74
2021/07/30 09:01:08;;;;;;;2.80;2.60;;;23.20;99.60;;;;;;4808439;29;20943;-73
2021/07/30 09:03:42;;;;;;;4.70;3.17;;;23.20;99.80;;;;;;4822765;29;20589;-73
2021/07/30 09:06:23;;;;;;;2.97;2.60;;;23.20;99.90;;;;;;4805217;29;20512;-73
2021/07/30 09:08:54;;;;;;;8.30;3.17;;;23.30;99.90;;;;;;4789538;29;20846;-74
2021/07/30 09:11:37;;;;;;;5.80;3.50;;;23.50;99.90;;;;;;4807128;29;20463;-73
2021/07/30 09:14:08;;;;;;;3.40;3.10;;;23.70;99.10;;;;;;4822873;29;20460;-74
2021/07/30 09:16:51;;;;;;;3.17;2.50;;;23.80;99.30;;;;;;4839283;29;20456;-73
2021/07/30 09:19:18;;;;;;;7.83;2.90;;;23.90;99.40;;;;;;4817040;29;20465;-73
2021/07/30 09:21:44;;;;;;;2.93;2.73;;;23.90;99.40;;;;;;4822728;29;20464;-74
2021/07/30 09:24:12;;;;;;;3.20;2.90;;;23.90;99.60;;;;;;4807324;29;20452;-72
2021/07/30 09:26:39;;;;;;;6.07;3.10;;;24.20;98.40;;;;;;4796634;29;20452;-74
2021/07/30 09:29:06;;;;;;;3.47;2.70;;;24.40;98.70;;;;;;4804961;29;20456;-73
2021/07/30 09:31:46;;;;;;;3.63;3.33;;;24.40;98.90;;;;;;4819712;29;20961;-73
2021/07/30 09:34:16;;;;;;;3.47;3.20;;;24.50;98.90;;;;;;4797873;29;20983;-73
2021/07/30 09:36:47;;;;;;;2.73;2.53;;;24.60;99.10;;;;;;4822453;29;20451;-74
2021/07/30 09:39:13;;;;;;;3.10;2.90;;;24.80;98.20;;;;;;4819711;29;20457;-74
2021/07/30 09:41:39;;;;;;;3.50;3.20;;;25.00;97.40;;;;;;4825315;29;20500;-74
2021/07/30 09:44:06;;;;;;;2.97;2.67;;;25.00;97.10;;;;;;4838994;29;20451;-73
2021/07/30 09:46:33;;;;;;;3.33;2.80;;;25.30;97.10;;;;;;4810683;29;20687;-74
2021/07/30 09:48:59;;;;;;;3.10;2.77;;;25.50;96.80;;;;;;4835397;29;20464;-73
2021/07/30 09:51:25;;;;;;;3.70;3.00;;;25.70;95.60;;;;;;4808067;29;20868;-73
2021/07/30 09:53:51;;;;;;;2.67;2.47;;;25.80;96.10;;;;;;4817823;29;20485;-74
2021/07/30 09:56:20;;;;;;;3.10;2.80;;;25.70;96.40;;;;;;4836054;29;20463;-73
2021/07/30 09:58:47;;;;;;;3.20;2.70;;;25.70;96.40;;;;;;4814769;29;20520;-73
2021/07/30 10:01:18;;;;;;;6.20;3.10;;;25.70;96.80;;;;;;4808695;29;20488;-73
2021/07/30 10:03:45;;;;;;;4.00;2.77;;;25.80;96.30;;;;;;4817254;29;20465;-74
2021/07/30 10:06:13;;;;;;;5.97;4.00;;;25.90;96.40;;;;;;4835602;29;20455;-73
2021/07/30 10:08:41;;;;;;;4.73;3.70;;;26.00;96.30;;;;;;4818967;29;20577;-74
2021/07/30 10:11:09;;;;;;;4.10;3.47;;;26.20;96.20;;;;;;4822076;29;20448;-73
2021/07/30 10:13:46;;;;;;;3.13;2.90;;;26.40;95.60;;;;;;4805377;29;20481;-73
2021/07/30 10:16:13;;;;;;;2.80;2.60;;;26.50;95.10;;;;;;4837054;29;20987;-73
2021/07/30 10:18:40;;;;;;;2.97;2.77;;;26.50;94.90;;;;;;4809888;29;20952;-74
2021/07/30 10:21:10;;;;;;;3.57;2.80;;;26.50;95.00;;;;;;4821632;29;20845;-73
2021/07/30 10:23:39;;;;;;;3.73;3.00;;;26.60;95.40;;;;;;4835972;29;20479;-71
2021/07/30 10:26:05;;;;;;;3.50;3.20;;;26.60;95.20;;;;;;4834066;29;20443;-73
2021/07/30 10:28:33;;;;;;;2.93;2.67;;;26.80;94.50;;;;;;4835863;29;20543;-73
2021/07/30 10:31:01;;;;;;;4.00;3.70;;;27.00;94.00;;;;;;4816198;29;20452;-73
2021/07/30 10:33:30;;;;;;;4.13;2.70;;;27.10;93.90;;;;;;4831523;29;20477;-74
2021/07/30 10:35:59;;;;;;;3.20;2.87;;;27.20;93.50;;;;;;4804493;29;21006;-74
2021/07/30 10:38:25;;;;;;;3.50;3.20;;;27.20;93.80;;;;;;4803666;29;20526;-71
2021/07/30 10:41:06;;;;;;;3.10;2.90;;;27.20;93.90;;;;;;4815403;29;20484;-70
2021/07/30 10:44:02;;;;;;;3.10;2.90;;;27.30;94.10;;;;;;4819471;29;20577;-70
2021/07/30 10:46:28;;;;;;;3.37;3.07;;;27.40;93.70;;;;;;4818826;29;20600;-71
2021/07/30 10:48:54;;;;;;;2.57;2.37;;;27.60;92.30;;;;;;4823571;29;20472;-71
2021/07/30 10:51:20;;;;;;;5.67;3.07;;;27.60;92.90;;;;;;4809722;29;20559;-71
2021/07/30 10:53:52;;;;;;;3.17;2.87;;;27.60;93.20;;;;;;4821953;29;20570;-71
2021/07/30 10:56:18;;;;;;;3.37;2.80;;;27.70;92.80;;;;;;4805568;29;20230;-73
2021/07/30 10:58:43;;;;;;;3.53;3.00;;;27.80;92.80;;;;;;4804501;29;20520;-71
2021/07/30 11:01:11;;;;;;;3.47;3.17;;;28.00;92.00;;;;;;4804130;29;20255;-72
2021/07/30 11:04:03;;;;;;;2.83;2.63;;;28.00;92.60;;;;;;4818237;29;20226;-72
2021/07/30 11:06:51;;;;;;;3.83;3.43;;;28.10;92.70;;;;;;4809936;29;20708;-71
2021/07/30 11:09:17;;;;;;;2.97;2.77;;;28.20;91.50;;;;;;4808237;29;20467;-71
2021/07/30 11:12:19;;;;;;;3.13;2.90;;;28.20;92.00;;;;;;4823979;29;20495;-72
2021/07/30 11:14:46;;;;;;;3.67;3.33;;;28.20;91.90;;;;;;4786514;29;20222;-71
2021/07/30 11:17:13;;;;;;;3.80;3.50;;;28.30;91.80;;;;;;4808465;29;20214;-71
2021/07/30 11:19:47;;;;;;;3.23;3.03;;;28.40;91.60;;;;;;4808733;29;20620;-72
2021/07/30 11:22:16;;;;;;;5.73;3.00;;;28.50;91.20;;;;;;4807339;29;20235;-71
2021/07/30 11:24:45;;;;;;;3.08;2.88;;;28.50;90.90;;;;;;4809007;29;20223;-70
2021/07/30 11:27:12;;;;;;;6.32;3.13;;;28.50;91.00;;;;;;4824742;29;20238;-71
2021/07/30 11:29:42;;;;;;;4.10;2.92;;;28.50;91.70;;;;;;4808870;29;20223;-71
2021/07/30 11:32:08;;;;;;;3.60;3.30;;;28.60;91.70;;;;;;4819034;29;20258;-71
2021/07/30 11:34:40;;;;;;;3.35;3.10;;;28.70;91.00;;;;;;4824250;29;20251;-71
2021/07/30 11:37:08;;;;;;;2.88;2.60;;;28.80;91.00;;;;;;4823863;29;20291;-71
2021/07/30 11:39:35;;;;;;;3.40;3.10;;;28.90;91.20;;;;;;4809151;29;20225;-71
2021/07/30 11:42:01;;;;;;;2.88;2.67;;;29.00;90.50;;;;;;4807909;29;20215;-71
2021/07/30 11:44:27;;;;;;;3.00;2.80;;;29.10;90.40;;;;;;4823203;29;20290;-71
2021/07/30 11:46:59;;;;;;;3.10;2.80;;;29.10;90.70;;;;;;4804391;29;20222;-71
2021/07/30 11:49:36;;;;;;;3.20;2.90;;;29.10;91.10;;;;;;4806958;29;20603;-72
2021/07/30 11:52:04;;;;;;;4.13;3.38;;;29.30;89.90;;;;;;4819896;29;20230;-71
2021/07/30 11:54:31;;;;;;;3.97;3.58;;;29.40;89.40;;;;;;4807314;29;20595;-69
2021/07/30 11:56:57;;;;;;;3.60;3.30;;;29.30;87.90;;;;;;4805773;29;20227;-70
2021/07/30 11:59:23;;;;;;;2.88;2.67;;;29.30;89.20;;;;;;4807199;29;20223;-74
2021/07/30 12:02:05;;;;;;;4.18;3.78;;;29.40;89.70;;;;;;4804707;29;20310;-72
2021/07/30 12:04:32;;;;;;;3.10;2.78;;;29.40;90.10;;;;;;4840493;29;20703;-71
2021/07/30 12:07:11;;;;;;;3.17;2.97;;;29.60;88.70;;;;;;4807814;29;20226;-71
2021/07/30 12:09:38;;;;;;;3.25;3.00;;;29.60;90.00;;;;;;4823910;29;20218;-71
2021/07/30 12:12:05;;;;;;;3.97;3.30;;;29.70;90.00;;;;;;4805317;29;20317;-71
2021/07/30 12:14:33;;;;;;;3.45;3.15;;;29.80;89.30;;;;;;4808087;29;20306;-71
2021/07/30 12:17:00;;;;;;;3.33;3.03;;;29.80;89.50;;;;;;4814735;29;20218;-71
2021/07/30 12:19:34;;;;;;;3.80;3.40;;;30.00;86.30;;;;;;4839807;29;20236;-71
2021/07/30 12:22:05;;;;;;;3.25;2.95;;;30.00;87.20;;;;;;4822949;29;20230;-71
2021/07/30 12:24:32;;;;;;;3.15;2.95;;;30.00;86.00;;;;;;4821609;29;20226;-70
2021/07/30 12:27:19;;;;;;;3.92;3.35;;;30.00;86.60;;;;;;4822970;29;20263;-71
2021/07/30 12:29:47;;;;;;;7.70;4.40;;;30.10;85.40;;;;;;4839214;29;20586;-71
2021/07/30 12:32:25;;;;;;;4.07;3.78;;;30.10;86.40;;;;;;4822828;29;20235;-71
2021/07/30 12:35:05;;;;;;;3.33;3.10;;;30.20;85.90;;;;;;4813191;29;20222;-71
2021/07/30 12:37:32;;;;;;;3.08;2.83;;;30.20;85.60;;;;;;4812630;29;20226;-71
2021/07/30 12:40:04;;;;;;;8.90;3.20;;;30.30;86.30;;;;;;4822565;29;20234;-71
2021/07/30 12:42:32;;;;;;;3.22;2.92;;;30.40;85.00;;;;;;4823404;29;20294;-71
2021/07/30 12:45:12;;;;;;;3.75;3.45;;;30.50;86.20;;;;;;4807607;29;20291;-71
2021/07/30 12:47:58;;;;;;;3.03;2.83;;;30.50;86.00;;;;;;4806590;29;20222;-72
2021/07/30 12:50:35;;;;;;;4.75;3.40;;;30.50;85.50;;;;;;4806132;29;20235;-71
2021/07/30 12:53:12;;;;;;;4.78;3.00;;;30.60;84.50;;;;;;4806979;29;20230;-71